Time;durP1;ratioP1;P1;durP2;ratioP2;P2;SDS_P1;SDS_P2;PMS_P1;PMS_P2;Temp;Humidity;BMP_temperature;BMP_pressure;BME280_temperature;BME280_humidity;BME280_pressure;Samples;Min_cycle;Max_cycle;Signal;HPM_P1;HPM_P2
2022/04/02 00:00:06;;;;;;;23.98;13.10;;;;;;;-0.36;75.74;97027.66;5093247;28;20477;-72
2022/04/02 00:02:32;;;;;;;19.70;13.20;;;;;;;-0.35;75.82;97017.69;5093358;28;20050;-72
2022/04/02 00:04:57;;;;;;;17.90;12.00;;;;;;;-0.35;75.97;97023.91;5093420;28;20028;-72
2022/04/02 00:07:23;;;;;;;17.80;11.65;;;;;;;-0.36;76.17;97022.28;5092751;28;20020;-72
2022/04/02 00:09:48;;;;;;;20.00;13.27;;;;;;;-0.38;75.79;97024.41;5091415;28;20028;-72
2022/04/02 00:12:14;;;;;;;19.10;11.15;;;;;;;-0.35;75.71;97025.75;5092809;28;20038;-73
2022/04/02 00:14:39;;;;;;;17.08;11.10;;;;;;;-0.36;75.78;97032.22;5092774;28;20028;-72
2022/04/02 00:17:05;;;;;;;19.10;11.57;;;;;;;-0.34;75.91;97030.91;5091326;28;20028;-72
2022/04/02 00:19:30;;;;;;;16.17;10.55;;;;;;;-0.37;75.82;97034.13;5092679;28;20034;-73
2022/04/02 00:21:56;;;;;;;20.83;12.13;;;;;;;-0.37;75.73;97039.50;5092817;28;20020;-72
2022/04/02 00:24:22;;;;;;;20.52;11.80;;;;;;;-0.39;75.79;97044.34;5092534;28;20028;-73
2022/04/02 00:26:47;;;;;;;19.15;12.50;;;;;;;-0.37;76.16;97034.13;5092630;28;20110;-73
2022/04/02 00:29:13;;;;;;;21.35;12.95;;;;;;;-0.40;75.76;97037.34;5093266;28;20016;-73
2022/04/02 00:31:40;;;;;;;13.50;9.63;;;;;;;-0.35;75.94;97045.44;5092872;28;20485;-72
2022/04/02 00:34:06;;;;;;;19.45;13.32;;;;;;;-0.35;75.89;97033.84;5093036;28;20481;-72
2022/04/02 00:36:37;;;;;;;20.35;13.02;;;;;;;-0.35;75.93;97031.97;5093273;28;20020;-72
2022/04/02 00:39:03;;;;;;;24.00;14.38;;;;;;;-0.38;75.83;97035.19;5092640;28;20069;-72
2022/04/02 00:41:28;;;;;;;26.65;14.15;;;;;;;-0.38;75.84;97040.56;5092351;28;20073;-72
2022/04/02 00:43:59;;;;;;;27.58;14.43;;;;;;;-0.40;75.98;97037.34;5092349;28;20443;-73
2022/04/02 00:46:25;;;;;;;23.23;12.98;;;;;;;-0.39;76.14;97032.75;5091501;28;20020;-72
2022/04/02 00:48:52;;;;;;;22.55;13.20;;;;;;;-0.42;75.91;97035.97;5092125;28;20497;-72
2022/04/02 00:51:18;;;;;;;17.83;12.50;;;;;;;-0.42;75.84;97038.69;5092002;28;20032;-72
2022/04/02 00:53:47;;;;;;;21.45;12.70;;;;;;;-0.45;76.16;97042.69;5092080;28;20028;-72
2022/04/02 00:56:13;;;;;;;23.75;12.98;;;;;;;-0.48;75.70;97035.13;5092136;28;20020;-72
2022/04/02 00:58:39;;;;;;;18.40;11.65;;;;;;;-0.43;76.15;97042.44;5091239;28;20057;-72
2022/04/02 01:01:06;;;;;;;20.88;13.13;;;;;;;-0.44;75.99;97038.91;5093106;28;20128;-73
2022/04/02 01:03:32;;;;;;;20.90;12.68;;;;;;;-0.41;76.05;97034.91;5092767;28;20086;-72
2022/04/02 01:05:59;;;;;;;18.63;12.63;;;;;;;-0.40;76.08;97034.63;5092930;28;20496;-72
2022/04/02 01:08:24;;;;;;;19.65;12.95;;;;;;;-0.41;75.97;97030.31;5089044;28;20397;-72
2022/04/02 01:10:50;;;;;;;18.00;12.65;;;;;;;-0.40;76.28;97033.81;5091938;28;20023;-72
2022/04/02 01:13:16;;;;;;;19.98;12.65;;;;;;;-0.41;75.91;97029.53;5091686;28;20016;-72
2022/04/02 01:15:41;;;;;;;21.50;12.70;;;;;;;-0.48;75.86;97035.94;5091477;28;20039;-72
2022/04/02 01:18:07;;;;;;;19.52;13.60;;;;;;;-0.52;76.17;97034.84;5091884;28;20047;-72
2022/04/02 01:20:33;;;;;;;19.08;12.35;;;;;;;-0.50;76.18;97031.88;5091476;28;20032;-72
2022/04/02 01:22:59;;;;;;;21.55;13.38;;;;;;;-0.50;76.17;97029.19;5091803;28;20027;-72
2022/04/02 01:25:31;;;;;;;20.52;13.32;;;;;;;-0.47;76.21;97025.97;5092738;28;20034;-72
2022/04/02 01:27:59;;;;;;;20.02;12.55;;;;;;;-0.51;75.96;97031.06;5090020;28;20044;-72
2022/04/02 01:30:24;;;;;;;23.08;14.13;;;;;;;-0.50;76.19;97029.19;5089852;28;20028;-72
2022/04/02 01:32:49;;;;;;;22.75;13.25;;;;;;;-0.43;76.52;97037.06;5091285;28;20043;-72
2022/04/02 01:35:15;;;;;;;21.02;13.52;;;;;;;-0.49;76.32;97033.50;5091428;28;20028;-72
2022/04/02 01:37:40;;;;;;;19.55;12.85;;;;;;;-0.49;76.40;97031.63;5091772;28;20020;-72
2022/04/02 01:40:07;;;;;;;22.92;13.95;;;;;;;-0.52;76.37;97028.63;5092172;28;20102;-71
2022/04/02 01:42:32;;;;;;;19.75;11.77;;;;;;;-0.56;76.49;97041.00;5092007;28;20052;-72
2022/04/02 01:44:59;;;;;;;25.10;15.27;;;;;;;-0.58;76.49;97040.44;5091092;28;20022;-72
2022/04/02 01:47:24;;;;;;;30.52;17.58;;;;;;;-0.54;76.68;97044.22;5091554;28;20020;-72
2022/04/02 01:49:50;;;;;;;21.67;14.57;;;;;;;-0.54;76.74;97047.75;5091048;28;20499;-72
2022/04/02 01:52:18;;;;;;;25.23;14.80;;;;;;;-0.57;76.53;97050.13;5090723;28;20055;-72
2022/04/02 01:54:44;;;;;;;24.13;14.55;;;;;;;-0.58;76.50;97049.34;5091021;28;20107;-72
2022/04/02 01:57:10;;;;;;;26.60;15.45;;;;;;;-0.61;76.63;97057.94;5089489;28;20529;-72
2022/04/02 01:59:36;;;;;;;22.27;14.07;;;;;;;-0.64;77.04;97053.88;5088688;28;20024;-72
2022/04/02 02:02:01;;;;;;;25.55;15.40;;;;;;;-0.70;77.11;97056.78;5089221;28;20032;-72
2022/04/02 02:04:28;;;;;;;22.08;14.15;;;;;;;-0.70;77.11;97070.25;5091092;28;20081;-72
2022/04/02 02:06:53;;;;;;;24.65;15.48;;;;;;;-0.68;76.98;97065.41;5089431;28;20020;-72
2022/04/02 02:09:19;;;;;;;20.10;12.13;;;;;;;-0.63;77.24;97070.84;5091222;28;20073;-72
2022/04/02 02:11:44;;;;;;;28.33;15.43;;;;;;;-0.68;76.92;97068.09;5090722;28;20028;-72
2022/04/02 02:14:10;;;;;;;26.23;14.80;;;;;;;-0.76;76.88;97070.19;5091548;28;20088;-71
2022/04/02 02:16:35;;;;;;;27.05;15.52;;;;;;;-0.77;77.19;97070.47;5089126;28;20048;-72
2022/04/02 02:19:01;;;;;;;27.17;16.83;;;;;;;-0.74;77.37;97072.66;5091208;28;20057;-73
2022/04/02 02:21:26;;;;;;;26.83;15.48;;;;;;;-0.71;77.14;97074.00;5091069;28;20055;-73
2022/04/02 02:23:52;;;;;;;26.88;16.02;;;;;;;-0.68;77.29;97082.41;5090705;28;20027;-72
2022/04/02 02:26:18;;;;;;;29.75;16.83;;;;;;;-0.68;77.18;97082.41;5091042;28;20027;-73
2022/04/02 02:28:43;;;;;;;24.83;15.55;;;;;;;-0.68;77.29;97078.88;5091113;28;20015;-73
2022/04/02 02:31:09;;;;;;;26.00;16.60;;;;;;;-0.71;77.18;97077.53;5090883;28;20065;-72
2022/04/02 02:36:18;;;;;;;31.50;15.23;;;;;;;-0.74;77.23;97078.03;5089151;28;20039;-72
2022/04/02 02:38:45;;;;;;;29.48;17.08;;;;;;;-0.75;77.17;97076.41;5090843;28;20020;-72
2022/04/02 02:41:11;;;;;;;29.02;16.27;;;;;;;-0.75;77.31;97079.09;5090715;28;20020;-72
2022/04/02 02:43:37;;;;;;;22.85;14.50;;;;;;;-0.76;77.32;97072.09;5091573;28;20055;-72
2022/04/02 02:46:03;;;;;;;23.92;15.35;;;;;;;-0.74;77.55;97075.34;5091847;28;20074;-72
2022/04/02 02:48:28;;;;;;;26.17;14.65;;;;;;;-0.76;77.45;97083.66;5091665;28;20497;-72
2022/04/02 02:50:54;;;;;;;29.23;15.38;;;;;;;-0.77;77.33;97081.25;5090929;28;20027;-73
2022/04/02 02:53:19;;;;;;;25.85;16.50;;;;;;;-0.78;77.72;97077.72;5091519;28;20371;-72
2022/04/02 02:55:44;;;;;;;26.77;15.73;;;;;;;-0.84;77.05;97084.16;5090614;28;20103;-72
2022/04/02 02:58:11;;;;;;;28.73;14.95;;;;;;;-0.84;77.51;97086.00;5089324;28;20024;-73
2022/04/02 03:00:36;;;;;;;30.08;15.73;;;;;;;-0.86;77.41;97082.75;5090651;28;20107;-72
2022/04/02 03:03:02;;;;;;;27.10;15.27;;;;;;;-0.87;78.31;97090.03;5091633;28;20024;-72
2022/04/02 03:05:27;;;;;;;23.80;13.93;;;;;;;-0.85;77.60;97079.00;5091760;28;20515;-72
2022/04/02 03:07:53;;;;;;;23.55;14.07;;;;;;;-0.88;77.36;97074.13;5090492;28;20080;-72
2022/04/02 03:10:24;;;;;;;24.50;15.57;;;;;;;-0.92;77.45;97077.34;5091588;28;20077;-72
2022/04/02 03:12:51;;;;;;;25.77;15.38;;;;;;;-0.87;77.49;97073.06;5089903;28;20028;-73
2022/04/02 03:15:18;;;;;;;21.85;14.02;;;;;;;-0.85;78.01;97085.22;5093324;28;20032;-72
2022/04/02 03:17:44;;;;;;;24.83;15.00;;;;;;;-0.82;77.80;97082.03;5095115;28;20107;-72
2022/04/02 03:20:13;;;;;;;22.63;13.57;;;;;;;-0.82;77.77;97084.72;5095364;28;20114;-72
2022/04/02 03:22:40;;;;;;;22.70;14.35;;;;;;;-0.81;77.89;97077.44;5095060;28;20499;-72
2022/04/02 03:25:09;;;;;;;19.92;12.63;;;;;;;-0.85;78.09;97084.38;5094982;28;20492;-72
2022/04/02 03:27:35;;;;;;;21.80;12.95;;;;;;;-0.87;77.63;97084.66;5095157;28;20033;-72
2022/04/02 03:30:00;;;;;;;20.40;12.73;;;;;;;-0.88;78.11;97079.53;5094780;28;20462;-72
2022/04/02 03:32:26;;;;;;;21.60;13.20;;;;;;;-0.86;78.42;97085.47;5094470;28;20031;-72
2022/04/02 03:34:51;;;;;;;16.17;10.60;;;;;;;-0.83;77.92;97077.69;5092955;28;20069;-72
2022/04/02 03:37:17;;;;;;;17.48;11.45;;;;;;;-0.85;78.41;97079.00;5093604;28;20036;-72
2022/04/02 03:39:42;;;;;;;19.15;12.73;;;;;;;-0.85;77.75;97079.00;5094895;28;20366;-72
2022/04/02 03:42:09;;;;;;;21.33;11.45;;;;;;;-0.82;77.88;97075.81;5094295;28;20062;-72
2022/04/02 03:44:35;;;;;;;17.40;11.23;;;;;;;-0.82;78.06;97078.50;5093562;28;20020;-72
2022/04/02 03:47:09;;;;;;;16.98;11.63;;;;;;;-0.86;77.83;97080.91;5095321;28;20107;-73
2022/04/02 03:49:36;;;;;;;19.58;11.68;;;;;;;-0.88;78.08;97087.59;5094493;28;20035;-72
2022/04/02 03:52:01;;;;;;;19.77;11.63;;;;;;;-0.92;77.93;97085.41;5094713;28;20024;-72
2022/04/02 03:54:27;;;;;;;17.83;11.02;;;;;;;-0.91;77.86;97091.63;5094609;28;20496;-72
2022/04/02 03:56:52;;;;;;;16.35;10.95;;;;;;;-0.97;77.89;97096.13;5093570;28;20107;-73
2022/04/02 03:59:18;;;;;;;21.48;11.52;;;;;;;-0.93;77.89;97091.06;5094486;28;20397;-72
2022/04/02 04:01:44;;;;;;;19.65;11.63;;;;;;;-0.94;77.65;97087.53;5093122;28;20384;-72
2022/04/02 04:04:10;;;;;;;18.15;11.13;;;;;;;-0.92;77.78;97090.78;5094470;28;20025;-71
2022/04/02 04:06:37;;;;;;;17.27;10.63;;;;;;;-0.93;77.78;97093.75;5094839;28;20485;-72
2022/04/02 04:09:03;;;;;;;15.77;10.70;;;;;;;-0.94;77.84;97102.91;5094406;28;20481;-72
2022/04/02 04:11:28;;;;;;;17.45;11.60;;;;;;;-0.97;77.87;97098.03;5094116;28;20031;-71
2022/04/02 04:13:54;;;;;;;21.83;12.57;;;;;;;-1.03;78.08;97107.94;5093495;28;20060;-72
2022/04/02 04:16:20;;;;;;;17.42;11.63;;;;;;;-1.03;78.28;97105.25;5093440;28;20424;-72
2022/04/02 04:18:46;;;;;;;21.25;13.85;;;;;;;-1.03;77.69;97104.41;5093283;28;20099;-73
2022/04/02 04:21:14;;;;;;;25.02;15.50;;;;;;;-1.02;77.90;97103.34;5093134;28;20020;-72
2022/04/02 04:23:40;;;;;;;17.67;11.02;;;;;;;-1.00;77.75;97110.09;5093626;28;20098;-72
2022/04/02 04:26:06;;;;;;;20.95;12.40;;;;;;;-1.01;77.71;97113.84;5094451;28;20035;-72
2022/04/02 04:28:31;;;;;;;20.52;11.50;;;;;;;-1.07;77.81;97109.50;5094919;28;20036;-72
2022/04/02 04:30:57;;;;;;;17.00;10.30;;;;;;;-1.06;78.05;97108.44;5094671;28;20031;-72
2022/04/02 04:33:22;;;;;;;21.42;13.02;;;;;;;-1.03;78.44;97109.78;5094037;28;20094;-72
2022/04/02 04:35:48;;;;;;;18.42;11.25;;;;;;;-1.02;78.03;97116.81;5093497;28;20439;-72
2022/04/02 04:38:13;;;;;;;13.93;9.52;;;;;;;-1.04;78.19;97122.47;5093933;28;20028;-72
2022/04/02 04:40:39;;;;;;;17.13;11.30;;;;;;;-1.08;78.09;97119.44;5093881;28;20028;-72
2022/04/02 04:43:04;;;;;;;16.40;10.20;;;;;;;-1.01;78.05;97121.91;5093063;28;20413;-72
2022/04/02 04:45:30;;;;;;;18.35;11.63;;;;;;;-0.98;78.10;97128.69;5093146;28;20114;-72
2022/04/02 04:47:55;;;;;;;15.98;10.05;;;;;;;-0.94;78.25;97127.13;5092120;28;20496;-72
2022/04/02 04:50:21;;;;;;;16.05;10.32;;;;;;;-0.91;78.33;97132.00;5093466;28;20088;-72
2022/04/02 04:52:46;;;;;;;19.88;12.48;;;;;;;-0.94;77.75;97133.31;5093250;28;20027;-72
2022/04/02 04:55:12;;;;;;;17.02;10.77;;;;;;;-0.98;77.62;97134.88;5093096;28;20028;-72
2022/04/02 04:57:37;;;;;;;21.25;12.23;;;;;;;-1.01;77.88;97132.69;5092924;28;20103;-72
2022/04/02 05:00:06;;;;;;;52.08;20.88;;;;;;;-0.99;77.88;97141.31;5091692;28;20046;-72
2022/04/02 05:02:31;;;;;;;37.67;17.58;;;;;;;-0.96;78.42;97134.63;5093123;28;20020;-72
2022/04/02 05:04:57;;;;;;;44.25;19.83;;;;;;;-0.95;77.91;97134.38;5092817;28;20035;-72
2022/04/02 05:07:24;;;;;;;73.45;27.60;;;;;;;-1.00;77.49;97130.81;5088820;28;20028;-72
2022/04/02 05:09:49;;;;;;;31.05;14.85;;;;;;;-0.99;77.91;97141.31;5093625;28;20028;-72
2022/04/02 05:12:15;;;;;;;21.75;10.30;;;;;;;-0.96;78.20;97138.13;5092237;28;20370;-72
2022/04/02 05:14:41;;;;;;;22.73;12.00;;;;;;;-0.96;77.82;97140.81;5093178;28;20024;-72
2022/04/02 05:17:07;;;;;;;34.30;15.43;;;;;;;-0.97;77.72;97133.81;5093014;28;20501;-72
2022/04/02 05:19:33;;;;;;;59.25;23.75;;;;;;;-0.94;77.71;97141.38;5093578;28;20057;-72
2022/04/02 05:21:58;;;;;;;74.30;30.77;;;;;;;-0.94;77.78;97145.97;5092660;28;20028;-72
2022/04/02 05:24:24;;;;;;;70.68;27.52;;;;;;;-0.92;77.68;97151.91;5091565;28;20150;-72
2022/04/02 05:26:49;;;;;;;29.50;14.32;;;;;;;-0.90;77.89;97147.06;5091881;28;20024;-72
2022/04/02 05:29:15;;;;;;;32.00;15.00;;;;;;;-0.88;77.57;97146.81;5092037;28;20031;-72
2022/04/02 05:31:41;;;;;;;37.65;18.48;;;;;;;-0.88;77.61;97142.25;5091547;28;20020;-72
2022/04/02 05:34:08;;;;;;;41.53;18.98;;;;;;;-0.88;77.52;97144.94;5091715;28;20024;-72
2022/04/02 05:36:34;;;;;;;33.65;18.38;;;;;;;-0.89;77.51;97146.00;5091620;28;20024;-72
2022/04/02 05:38:59;;;;;;;32.47;17.08;;;;;;;-0.87;77.49;97140.38;5091413;28;20031;-73
2022/04/02 05:41:25;;;;;;;34.35;18.27;;;;;;;-0.86;77.39;97147.38;5091278;28;20412;-72
2022/04/02 05:43:50;;;;;;;25.75;14.57;;;;;;;-0.87;77.76;97143.88;5091734;28;20052;-72
2022/04/02 05:46:16;;;;;;;26.02;14.73;;;;;;;-0.82;77.87;97151.19;5089524;28;20077;-71
2022/04/02 05:48:42;;;;;;;27.63;14.63;;;;;;;-0.79;78.20;97147.97;5091946;28;20073;-72
2022/04/02 05:51:08;;;;;;;31.63;16.60;;;;;;;-0.74;77.98;97145.34;5091226;28;20464;-72
2022/04/02 05:53:34;;;;;;;30.90;15.02;;;;;;;-0.73;77.56;97159.59;5092061;28;20127;-72
2022/04/02 05:56:01;;;;;;;29.45;15.77;;;;;;;-0.73;77.59;97165.00;5090909;28;20024;-72
2022/04/02 05:58:28;;;;;;;28.52;16.20;;;;;;;-0.75;77.40;97166.06;5092247;28;20031;-72
2022/04/02 06:00:53;;;;;;;22.17;14.25;;;;;;;-0.82;77.23;97159.25;5091932;28;20588;-72
2022/04/02 06:03:22;;;;;;;28.60;17.75;;;;;;;-0.82;77.69;97164.63;5092005;28;20042;-72
2022/04/02 06:05:49;;;;;;;28.80;16.40;;;;;;;-0.86;77.38;97161.66;5091666;28;20052;-71
2022/04/02 06:08:16;;;;;;;31.88;15.30;;;;;;;-0.88;77.48;97165.66;5092243;28;20035;-73
2022/04/02 06:10:44;;;;;;;32.83;16.88;;;;;;;-0.89;77.52;97170.25;5092199;28;20028;-72
2022/04/02 06:13:09;;;;;;;26.60;15.18;;;;;;;-0.85;77.63;97174.06;5090472;28;20031;-73
2022/04/02 06:15:35;;;;;;;29.00;15.82;;;;;;;-0.84;77.27;97167.59;5092360;28;20039;-72
2022/04/02 06:18:01;;;;;;;26.98;15.15;;;;;;;-0.80;77.37;97174.06;5091889;28;20024;-72
2022/04/02 06:20:26;;;;;;;28.33;16.23;;;;;;;-0.79;77.66;97175.69;5091925;28;20035;-72
2022/04/02 06:22:52;;;;;;;25.83;15.43;;;;;;;-0.75;77.79;97176.81;5091772;28;20028;-73
2022/04/02 06:25:17;;;;;;;27.08;17.02;;;;;;;-0.77;77.39;97176.25;5090895;28;20030;-72
2022/04/02 06:27:44;;;;;;;26.52;15.68;;;;;;;-0.82;77.48;97176.25;5091998;28;20099;-72
2022/04/02 06:30:11;;;;;;;23.65;14.50;;;;;;;-0.84;77.71;97174.84;5091402;28;20032;-73
2022/04/02 06:32:38;;;;;;;27.55;15.95;;;;;;;-0.81;77.70;97179.72;5091782;28;20051;-73
2022/04/02 06:35:04;;;;;;;28.98;16.30;;;;;;;-0.76;77.88;97193.25;5093249;28;20031;-74
2022/04/02 06:37:38;;;;;;;26.42;15.18;;;;;;;-0.77;77.64;97178.16;5092950;28;20051;-73
2022/04/02 06:40:05;;;;;;;22.40;14.15;;;;;;;-0.78;77.60;97173.84;5092124;28;20030;-73
2022/04/02 06:42:31;;;;;;;18.83;12.75;;;;;;;-0.82;77.74;97183.47;5091513;28;20055;-73
2022/04/02 06:44:56;;;;;;;24.02;16.15;;;;;;;-0.77;77.68;97183.53;5091430;28;20028;-72
2022/04/02 06:47:26;;;;;;;23.80;15.13;;;;;;;-0.74;77.56;97188.41;5090984;28;20028;-73
2022/04/02 06:49:52;;;;;;;20.63;13.23;;;;;;;-0.71;77.45;97193.28;5094157;28;20119;-73
2022/04/02 06:52:18;;;;;;;27.10;15.27;;;;;;;-0.73;77.45;97190.03;5095463;28;20110;-73
2022/04/02 06:54:43;;;;;;;24.95;14.30;;;;;;;-0.70;77.17;97192.22;5093686;28;20104;-73
2022/04/02 06:57:08;;;;;;;21.30;12.13;;;;;;;-0.74;77.33;97193.81;5094798;28;20074;-73
2022/04/02 06:59:34;;;;;;;30.42;16.90;;;;;;;-0.74;77.41;97199.19;5094896;28;20020;-73
2022/04/02 07:01:59;;;;;;;25.25;15.73;;;;;;;-0.68;76.95;97203.56;5094848;28;20024;-73
2022/04/02 07:04:25;;;;;;;18.58;11.63;;;;;;;-0.74;77.01;97193.81;5095153;28;20036;-72
2022/04/02 07:06:51;;;;;;;28.35;14.93;;;;;;;-0.69;76.92;97201.09;5093905;28;20465;-72
2022/04/02 07:09:18;;;;;;;25.98;14.45;;;;;;;-0.62;77.03;97209.81;5093575;28;20043;-73
2022/04/02 07:11:44;;;;;;;40.13;18.15;;;;;;;-0.60;76.65;97208.47;5094981;28;20433;-72
2022/04/02 07:14:10;;;;;;;22.50;12.50;;;;;;;-0.57;76.42;97204.47;5097221;28;20015;-73
2022/04/02 07:16:36;;;;;;;38.30;18.83;;;;;;;-0.58;75.96;97207.41;5095924;28;20020;-72
2022/04/02 07:19:02;;;;;;;36.50;20.25;;;;;;;-0.60;75.93;97211.16;5096618;28;20024;-72
2022/04/02 07:21:29;;;;;;;59.05;24.45;;;;;;;-0.58;76.10;97218.16;5095677;28;20038;-72
2022/04/02 07:23:55;;;;;;;52.20;22.27;;;;;;;-0.51;76.27;97218.78;5095496;28;20067;-72
2022/04/02 07:26:21;;;;;;;28.00;13.60;;;;;;;-0.42;76.19;97221.84;5095098;28;20042;-72
2022/04/02 07:28:47;;;;;;;26.63;13.60;;;;;;;-0.36;76.35;97226.19;5093173;28;20031;-73
2022/04/02 07:31:13;;;;;;;23.40;12.55;;;;;;;-0.34;75.89;97221.38;5093809;28;20016;-73
2022/04/02 07:33:38;;;;;;;42.38;17.90;;;;;;;-0.35;75.66;97223.25;5094583;28;20114;-71
2022/04/02 07:36:08;;;;;;;30.30;15.35;;;;;;;-0.33;75.55;97229.19;5094666;28;20024;-71
2022/04/02 07:38:59;;;;;;;23.85;13.18;;;;;;;-0.36;75.83;97227.03;5093100;28;20024;-72
2022/04/02 07:41:30;;;;;;;37.63;18.60;;;;;;;-0.35;75.85;97230.50;5094910;28;20040;-73
2022/04/02 07:44:03;;;;;;;24.35;13.43;;;;;;;-0.34;75.63;97224.88;5093810;28;20413;-72
2022/04/02 07:46:32;;;;;;;22.00;11.93;;;;;;;-0.38;75.40;97229.16;5094132;28;20027;-72
2022/04/02 07:48:58;;;;;;;20.38;12.52;;;;;;;-0.37;75.52;97236.16;5095018;28;20362;-72
2022/04/02 07:51:30;;;;;;;21.02;12.32;;;;;;;-0.38;75.16;97229.16;5094414;28;20028;-71
2022/04/02 07:54:00;;;;;;;22.42;13.05;;;;;;;-0.33;75.42;97228.38;5094027;28;20474;-72
2022/04/02 07:56:43;;;;;;;20.95;11.95;;;;;;;-0.32;75.46;97233.53;5092863;28;20052;-71
2022/04/02 07:59:14;;;;;;;19.50;11.82;;;;;;;-0.24;75.38;97236.81;5094884;28;20032;-72
2022/04/02 08:01:40;;;;;;;19.00;11.85;;;;;;;-0.22;75.50;97240.09;5093782;28;20024;-72
2022/04/02 08:04:08;;;;;;;19.13;12.10;;;;;;;-0.20;74.95;97237.91;5094242;28;20153;-71
2022/04/02 08:06:36;;;;;;;21.35;12.98;;;;;;;-0.20;75.15;97240.59;5094456;28;20028;-73
2022/04/02 08:09:03;;;;;;;20.25;12.13;;;;;;;-0.15;75.36;97237.97;5093996;28;20573;-73
2022/04/02 08:11:29;;;;;;;19.88;10.68;;;;;;;-0.15;74.95;97240.66;5093946;28;20035;-73
2022/04/02 08:13:57;;;;;;;23.30;12.50;;;;;;;-0.09;75.07;97242.31;5092610;28;20389;-73
2022/04/02 08:16:23;;;;;;;22.33;13.60;;;;;;;-0.08;74.95;97246.66;5093933;28;20358;-73
2022/04/02 08:18:48;;;;;;;18.90;12.60;;;;;;;-0.16;74.51;97258.72;5094463;28;20028;-72
2022/04/02 08:21:14;;;;;;;23.60;13.70;;;;;;;-0.24;74.29;97255.69;5093924;28;20046;-72
2022/04/02 08:23:40;;;;;;;19.17;10.30;;;;;;;-0.27;74.65;97258.91;5092882;28;20442;-72
2022/04/02 08:26:07;;;;;;;21.00;10.95;;;;;;;-0.26;74.45;97265.91;5093472;28;20093;-72
2022/04/02 08:29:04;;;;;;;48.95;15.88;;;;;;;-0.26;74.51;97268.59;5093780;28;20024;-72
2022/04/02 08:32:08;;;;;;;73.78;33.47;;;;;;;-0.16;74.35;97268.66;5093853;28;20027;-73
2022/04/02 08:34:55;;;;;;;44.13;20.05;;;;;;;-0.11;74.50;97268.72;5093880;28;20028;-72
2022/04/02 08:37:45;;;;;;;50.40;22.25;;;;;;;-0.12;74.22;97269.78;5093798;28;20032;-72
2022/04/02 08:40:44;;;;;;;65.87;24.23;;;;;;;-0.04;73.94;97272.03;5093651;28;20028;-72
2022/04/02 08:43:48;;;;;;;52.78;20.65;;;;;;;0.05;73.71;97277.75;5060018;28;20472;-72
2022/04/02 08:46:37;;;;;;;21.15;11.60;;;;;;;0.19;73.87;97277.31;5051283;28;20057;-72
2022/04/02 08:49:22;;;;;;;19.00;11.80;;;;;;;0.33;73.21;97272.31;5051659;28;20113;-73
2022/04/02 08:52:09;;;;;;;42.05;21.20;;;;;;;0.36;72.73;97275.31;5083437;28;20036;-72
2022/04/02 08:54:40;;;;;;;18.65;11.07;;;;;;;0.39;72.76;97273.97;5094093;28;20031;-73
2022/04/02 08:57:12;;;;;;;37.03;16.38;;;;;;;0.37;72.50;97278.81;5094162;28;20032;-73
2022/04/02 08:59:39;;;;;;;105.90;31.58;;;;;;;0.33;72.63;97277.69;5093651;28;20504;-73
2022/04/02 09:02:07;;;;;;;29.85;15.57;;;;;;;0.31;72.60;97277.97;5094013;28;20020;-72
2022/04/02 09:04:52;;;;;;;19.55;11.63;;;;;;;0.18;72.73;97287.31;5093326;28;20040;-73
2022/04/02 09:07:48;;;;;;;26.80;14.50;;;;;;;0.12;73.07;97283.75;5091879;28;20122;-73
2022/04/02 09:10:51;;;;;;;24.90;12.63;;;;;;;0.27;73.44;97284.94;5092452;28;20024;-72
2022/04/02 09:13:36;;;;;;;18.67;11.82;;;;;;;0.35;73.10;97295.25;5084807;28;20063;-73
2022/04/02 09:16:07;;;;;;;16.40;11.13;;;;;;;0.36;72.85;97296.88;5091470;28;20028;-72
2022/04/02 09:19:12;;;;;;;25.02;14.57;;;;;;;0.41;72.98;97293.41;5091086;28;20024;-74
2022/04/02 09:22:03;;;;;;;20.88;12.60;;;;;;;0.44;73.07;97292.88;5092218;28;20497;-72
2022/04/02 09:25:04;;;;;;;22.65;11.88;;;;;;;0.44;73.14;97304.47;5092516;28;20062;-74
2022/04/02 09:28:03;;;;;;;29.00;12.48;;;;;;;0.56;72.38;97307.00;5024043;28;20046;-73
2022/04/02 09:30:32;;;;;;;27.08;13.98;;;;;;;0.71;72.62;97308.16;5093707;28;20028;-73
2022/04/02 09:33:19;;;;;;;25.95;14.35;;;;;;;0.80;72.05;97303.91;5094348;28;20039;-74
2022/04/02 09:35:57;;;;;;;24.17;12.40;;;;;;;1.00;71.38;97314.00;5093962;28;20099;-73
2022/04/02 09:38:43;;;;;;;21.05;11.50;;;;;;;1.19;72.33;97310.88;5093256;28;20028;-74
2022/04/02 09:41:27;;;;;;;22.55;12.73;;;;;;;1.33;71.32;97314.69;5092540;28;20036;-73
2022/04/02 09:44:23;;;;;;;24.00;13.55;;;;;;;1.40;71.33;97319.88;5091721;28;20548;-72
2022/04/02 09:47:03;;;;;;;18.40;12.40;;;;;;;1.39;71.05;97315.53;5092614;28;20477;-71
2022/04/02 09:50:06;;;;;;;30.83;16.17;;;;;;;1.36;71.08;97317.94;5086882;28;20035;-72
2022/04/02 09:52:32;;;;;;;28.92;15.68;;;;;;;1.26;71.22;97316.00;5087447;28;20119;-71
2022/04/02 09:55:05;;;;;;;29.10;17.25;;;;;;;1.22;71.25;97312.22;5090897;28;20107;-72
2022/04/02 09:57:53;;;;;;;20.85;13.50;;;;;;;1.16;71.03;97314.09;5090207;28;20108;-72
2022/04/02 10:00:21;;;;;;;27.67;14.93;;;;;;;1.09;70.02;97322.41;5090769;28;20066;-72
2022/04/02 10:03:06;;;;;;;21.38;13.18;;;;;;;0.86;69.77;97323.63;5088714;28;20036;-72
2022/04/02 10:05:39;;;;;;;26.15;15.85;;;;;;;0.68;70.02;97319.47;5089035;28;20053;-72
2022/04/02 10:08:11;;;;;;;18.02;10.93;;;;;;;0.68;70.41;97320.31;5089509;28;20027;-72
2022/04/02 10:10:38;;;;;;;14.38;10.20;;;;;;;0.78;70.87;97333.03;5090410;28;20051;-71
2022/04/02 10:13:05;;;;;;;13.75;10.30;;;;;;;0.84;70.36;97321.22;5087791;28;20020;-72
2022/04/02 10:15:32;;;;;;;15.68;11.05;;;;;;;0.92;70.15;97328.00;5089021;28;20024;-71
2022/04/02 10:18:02;;;;;;;21.88;13.95;;;;;;;0.97;71.12;97325.31;5089101;28;20064;-71
2022/04/02 10:20:29;;;;;;;26.42;14.88;;;;;;;0.95;70.63;97322.06;5089878;28;20032;-72
2022/04/02 10:23:16;;;;;;;25.75;13.98;;;;;;;0.95;70.91;97332.88;5089264;28;20032;-72
2022/04/02 10:26:14;;;;;;;21.90;13.43;;;;;;;1.04;70.76;97335.88;5088580;28;20028;-72
2022/04/02 10:28:52;;;;;;;20.92;13.05;;;;;;;1.07;69.55;97342.66;5085952;28;20016;-73
2022/04/02 10:31:40;;;;;;;20.95;12.60;;;;;;;0.99;69.56;97342.06;5090159;28;20024;-72
2022/04/02 10:34:26;;;;;;;20.50;12.93;;;;;;;0.91;69.04;97344.47;5089793;28;20540;-72
2022/04/02 10:37:00;;;;;;;17.05;10.13;;;;;;;0.81;68.80;97346.03;5088373;28;20020;-71
2022/04/02 10:39:27;;;;;;;22.02;12.48;;;;;;;0.73;69.02;97347.34;5090290;28;20028;-72
2022/04/02 10:42:04;;;;;;;21.30;12.57;;;;;;;0.72;69.59;97344.88;5089853;28;20067;-73
2022/04/02 10:44:44;;;;;;;19.73;11.95;;;;;;;0.79;69.38;97350.88;5088215;28;20056;-73
2022/04/02 10:47:12;;;;;;;15.75;11.45;;;;;;;0.72;69.62;97347.56;5090203;28;20073;-73
2022/04/02 10:49:40;;;;;;;19.67;11.73;;;;;;;0.66;69.46;97346.72;5089274;28;20473;-73
2022/04/02 10:52:11;;;;;;;26.25;14.65;;;;;;;0.57;69.32;97349.09;5089670;28;20023;-73
2022/04/02 10:54:39;;;;;;;15.77;10.52;;;;;;;0.55;69.78;97353.94;5090292;28;20058;-73
2022/04/02 10:57:05;;;;;;;16.35;10.52;;;;;;;0.51;70.07;97352.84;5089856;28;20030;-72
2022/04/02 10:59:31;;;;;;;16.70;11.75;;;;;;;0.46;69.73;97347.41;5090003;28;20024;-72
2022/04/02 11:02:01;;;;;;;17.17;10.85;;;;;;;0.49;70.45;97354.16;5087946;28;20115;-72
2022/04/02 11:04:32;;;;;;;24.80;15.43;;;;;;;0.43;70.22;97354.09;5088098;28;20024;-72
2022/04/02 11:07:00;;;;;;;19.55;13.65;;;;;;;0.36;70.37;97360.78;5088772;28;20442;-72
2022/04/02 11:09:36;;;;;;;20.58;14.20;;;;;;;0.32;70.45;97359.69;5087072;28;20028;-71
2022/04/02 11:12:06;;;;;;;19.98;14.05;;;;;;;0.36;70.65;97358.09;5085475;28;20028;-72
2022/04/02 11:14:45;;;;;;;18.20;12.75;;;;;;;0.29;69.91;97361.03;5089081;28;20032;-72
2022/04/02 11:17:32;;;;;;;22.35;14.10;;;;;;;0.19;70.12;97361.75;5089504;28;20055;-72
2022/04/02 11:20:17;;;;;;;17.50;12.18;;;;;;;0.21;70.14;97364.19;5084239;28;20020;-72
2022/04/02 11:22:47;;;;;;;19.35;14.13;;;;;;;0.28;70.50;97365.59;5086430;28;20076;-71
2022/04/02 11:25:28;;;;;;;18.15;12.65;;;;;;;0.25;70.39;97366.09;5088256;28;20024;-71
2022/04/02 11:27:58;;;;;;;17.30;11.50;;;;;;;0.30;70.42;97365.34;5087858;28;20111;-71
2022/04/02 11:30:33;;;;;;;20.20;14.70;;;;;;;0.34;70.41;97369.16;5088338;28;20464;-72
2022/04/02 11:33:19;;;;;;;21.55;14.35;;;;;;;0.32;69.97;97367.75;5085759;28;20044;-71